sensor_id;sensor_type;location;lat;lon;timestamp;P1;durP1;ratioP1;P2;durP2;ratioP2
46653;SDS011;38960;51.074;17.004;2023-08-20T00:00:06;31.35;;;28.83;;
46653;SDS011;38960;51.074;17.004;2023-08-20T00:02:37;31.30;;;28.52;;
46653;SDS011;38960;51.074;17.004;2023-08-20T00:05:07;31.30;;;28.27;;
46653;SDS011;38960;51.074;17.004;2023-08-20T00:07:33;31.52;;;28.52;;
46653;SDS011;38960;51.074;17.004;2023-08-20T00:09:59;33.08;;;30.15;;
46653;SDS011;38960;51.074;17.004;2023-08-20T00:12:24;32.88;;;29.67;;
46653;SDS011;38960;51.074;17.004;2023-08-20T00:14:55;32.10;;;29.33;;
46653;SDS011;38960;51.074;17.004;2023-08-20T00:17:24;32.40;;;29.70;;
46653;SDS011;38960;51.074;17.004;2023-08-20T00:19:53;32.30;;;29.52;;
46653;SDS011;38960;51.074;17.004;2023-08-20T00:22:21;33.35;;;30.58;;
46653;SDS011;38960;51.074;17.004;2023-08-20T00:24:48;33.38;;;29.30;;
46653;SDS011;38960;51.074;17.004;2023-08-20T00:27:14;31.52;;;28.98;;
46653;SDS011;38960;51.074;17.004;2023-08-20T00:29:39;32.70;;;29.80;;
46653;SDS011;38960;51.074;17.004;2023-08-20T00:32:05;34.13;;;30.08;;
46653;SDS011;38960;51.074;17.004;2023-08-20T00:34:31;31.63;;;28.95;;
46653;SDS011;38960;51.074;17.004;2023-08-20T00:36:56;32.25;;;29.40;;
46653;SDS011;38960;51.074;17.004;2023-08-20T00:39:22;31.27;;;28.45;;
46653;SDS011;38960;51.074;17.004;2023-08-20T00:41:47;31.77;;;29.20;;
46653;SDS011;38960;51.074;17.004;2023-08-20T00:44:13;31.70;;;29.20;;
46653;SDS011;38960;51.074;17.004;2023-08-20T00:46:39;30.63;;;28.02;;
46653;SDS011;38960;51.074;17.004;2023-08-20T00:49:04;32.33;;;29.42;;
46653;SDS011;38960;51.074;17.004;2023-08-20T00:51:32;31.00;;;28.17;;
46653;SDS011;38960;51.074;17.004;2023-08-20T00:53:58;31.75;;;28.80;;
46653;SDS011;38960;51.074;17.004;2023-08-20T00:56:25;31.95;;;29.08;;
46653;SDS011;38960;51.074;17.004;2023-08-20T00:58:50;32.17;;;29.10;;
46653;SDS011;38960;51.074;17.004;2023-08-20T01:01:16;31.55;;;28.73;;
46653;SDS011;38960;51.074;17.004;2023-08-20T01:03:43;31.83;;;29.05;;
46653;SDS011;38960;51.074;17.004;2023-08-20T01:10:08;30.85;;;28.25;;
46653;SDS011;38960;51.074;17.004;2023-08-20T01:12:19;30.63;;;28.23;;
46653;SDS011;38960;51.074;17.004;2023-08-20T01:14:46;31.45;;;28.73;;
46653;SDS011;38960;51.074;17.004;2023-08-20T01:17:11;32.47;;;29.52;;
46653;SDS011;38960;51.074;17.004;2023-08-20T01:19:37;30.80;;;28.30;;
46653;SDS011;38960;51.074;17.004;2023-08-20T01:25:04;31.95;;;29.20;;
46653;SDS011;38960;51.074;17.004;2023-08-20T01:30:29;30.52;;;28.02;;
46653;SDS011;38960;51.074;17.004;2023-08-20T01:32:56;31.15;;;28.35;;
46653;SDS011;38960;51.074;17.004;2023-08-20T01:35:23;30.20;;;27.80;;
46653;SDS011;38960;51.074;17.004;2023-08-20T01:38:01;31.60;;;28.75;;
46653;SDS011;38960;51.074;17.004;2023-08-20T01:40:28;30.95;;;28.40;;
46653;SDS011;38960;51.074;17.004;2023-08-20T01:42:54;30.60;;;28.10;;
46653;SDS011;38960;51.074;17.004;2023-08-20T01:45:19;31.40;;;28.58;;
46653;SDS011;38960;51.074;17.004;2023-08-20T01:47:47;30.52;;;27.98;;
46653;SDS011;38960;51.074;17.004;2023-08-20T01:50:13;30.85;;;28.35;;
46653;SDS011;38960;51.074;17.004;2023-08-20T01:52:39;30.50;;;27.95;;
46653;SDS011;38960;51.074;17.004;2023-08-20T01:55:04;30.45;;;27.83;;
46653;SDS011;38960;51.074;17.004;2023-08-20T01:57:32;30.55;;;28.00;;
46653;SDS011;38960;51.074;17.004;2023-08-20T01:59:58;31.05;;;28.63;;
46653;SDS011;38960;51.074;17.004;2023-08-20T02:02:24;31.25;;;28.58;;
46653;SDS011;38960;51.074;17.004;2023-08-20T02:04:50;29.95;;;27.50;;
46653;SDS011;38960;51.074;17.004;2023-08-20T02:07:15;30.08;;;27.35;;
46653;SDS011;38960;51.074;17.004;2023-08-20T02:09:41;30.58;;;28.17;;
46653;SDS011;38960;51.074;17.004;2023-08-20T02:12:07;29.52;;;27.23;;
46653;SDS011;38960;51.074;17.004;2023-08-20T02:14:33;30.70;;;27.95;;
46653;SDS011;38960;51.074;17.004;2023-08-20T02:17:00;30.30;;;27.60;;
46653;SDS011;38960;51.074;17.004;2023-08-20T02:19:26;30.45;;;28.00;;
46653;SDS011;38960;51.074;17.004;2023-08-20T02:21:52;30.35;;;27.80;;
46653;SDS011;38960;51.074;17.004;2023-08-20T02:24:18;30.70;;;28.05;;
46653;SDS011;38960;51.074;17.004;2023-08-20T02:26:44;29.63;;;27.23;;
46653;SDS011;38960;51.074;17.004;2023-08-20T02:29:09;30.75;;;28.13;;
46653;SDS011;38960;51.074;17.004;2023-08-20T02:31:35;30.15;;;27.38;;
46653;SDS011;38960;51.074;17.004;2023-08-20T02:34:01;29.67;;;27.00;;
46653;SDS011;38960;51.074;17.004;2023-08-20T02:36:27;30.88;;;27.98;;
46653;SDS011;38960;51.074;17.004;2023-08-20T02:38:52;30.42;;;27.85;;
46653;SDS011;38960;51.074;17.004;2023-08-20T02:41:18;28.90;;;26.70;;
46653;SDS011;38960;51.074;17.004;2023-08-20T02:43:44;30.90;;;28.40;;
46653;SDS011;38960;51.074;17.004;2023-08-20T02:46:10;30.45;;;28.05;;
46653;SDS011;38960;51.074;17.004;2023-08-20T02:48:35;28.88;;;26.55;;
46653;SDS011;38960;51.074;17.004;2023-08-20T02:51:01;30.20;;;27.63;;
46653;SDS011;38960;51.074;17.004;2023-08-20T02:53:26;29.70;;;27.33;;
46653;SDS011;38960;51.074;17.004;2023-08-20T02:55:52;29.52;;;27.23;;
46653;SDS011;38960;51.074;17.004;2023-08-20T02:58:17;29.23;;;26.83;;
46653;SDS011;38960;51.074;17.004;2023-08-20T03:00:43;29.95;;;27.23;;
46653;SDS011;38960;51.074;17.004;2023-08-20T03:03:10;29.35;;;26.92;;
46653;SDS011;38960;51.074;17.004;2023-08-20T03:05:38;29.30;;;26.90;;
46653;SDS011;38960;51.074;17.004;2023-08-20T03:08:03;30.33;;;27.50;;
46653;SDS011;38960;51.074;17.004;2023-08-20T03:10:30;29.95;;;27.20;;
46653;SDS011;38960;51.074;17.004;2023-08-20T03:12:57;29.95;;;27.38;;
46653;SDS011;38960;51.074;17.004;2023-08-20T03:15:24;29.15;;;26.85;;
46653;SDS011;38960;51.074;17.004;2023-08-20T03:17:49;27.88;;;25.63;;
46653;SDS011;38960;51.074;17.004;2023-08-20T03:20:15;29.98;;;27.48;;
46653;SDS011;38960;51.074;17.004;2023-08-20T03:22:40;29.20;;;26.80;;
46653;SDS011;38960;51.074;17.004;2023-08-20T03:25:06;29.08;;;26.63;;
46653;SDS011;38960;51.074;17.004;2023-08-20T03:27:32;30.60;;;28.00;;
46653;SDS011;38960;51.074;17.004;2023-08-20T03:29:57;29.50;;;26.90;;
46653;SDS011;38960;51.074;17.004;2023-08-20T03:32:23;29.30;;;26.58;;
46653;SDS011;38960;51.074;17.004;2023-08-20T03:34:49;28.98;;;26.58;;
46653;SDS011;38960;51.074;17.004;2023-08-20T03:37:17;29.67;;;27.17;;
46653;SDS011;38960;51.074;17.004;2023-08-20T03:39:42;29.10;;;27.00;;
46653;SDS011;38960;51.074;17.004;2023-08-20T03:42:08;29.92;;;27.52;;
46653;SDS011;38960;51.074;17.004;2023-08-20T03:44:33;30.05;;;27.45;;
46653;SDS011;38960;51.074;17.004;2023-08-20T03:46:59;30.27;;;27.85;;
46653;SDS011;38960;51.074;17.004;2023-08-20T03:49:25;28.77;;;26.50;;
46653;SDS011;38960;51.074;17.004;2023-08-20T03:51:51;29.90;;;27.52;;
46653;SDS011;38960;51.074;17.004;2023-08-20T03:54:17;28.92;;;26.73;;
46653;SDS011;38960;51.074;17.004;2023-08-20T03:56:42;28.98;;;26.52;;
46653;SDS011;38960;51.074;17.004;2023-08-20T03:59:08;29.45;;;26.98;;
46653;SDS011;38960;51.074;17.004;2023-08-20T04:01:33;28.35;;;26.15;;
46653;SDS011;38960;51.074;17.004;2023-08-20T04:04:01;29.15;;;26.85;;
46653;SDS011;38960;51.074;17.004;2023-08-20T04:06:28;29.35;;;26.95;;
46653;SDS011;38960;51.074;17.004;2023-08-20T04:08:54;28.70;;;26.40;;
46653;SDS011;38960;51.074;17.004;2023-08-20T04:11:19;29.33;;;27.02;;
46653;SDS011;38960;51.074;17.004;2023-08-20T04:13:45;29.23;;;26.52;;
46653;SDS011;38960;51.074;17.004;2023-08-20T04:16:10;29.02;;;26.92;;
46653;SDS011;38960;51.074;17.004;2023-08-20T04:18:36;28.70;;;26.50;;
46653;SDS011;38960;51.074;17.004;2023-08-20T04:21:02;29.92;;;26.85;;
46653;SDS011;38960;51.074;17.004;2023-08-20T04:23:27;28.67;;;26.38;;
46653;SDS011;38960;51.074;17.004;2023-08-20T04:25:53;28.25;;;25.77;;
46653;SDS011;38960;51.074;17.004;2023-08-20T04:28:19;28.50;;;26.10;;
46653;SDS011;38960;51.074;17.004;2023-08-20T04:30:44;28.95;;;26.35;;
46653;SDS011;38960;51.074;17.004;2023-08-20T04:33:11;27.98;;;25.67;;
46653;SDS011;38960;51.074;17.004;2023-08-20T04:35:39;28.42;;;26.08;;
46653;SDS011;38960;51.074;17.004;2023-08-20T04:38:04;28.63;;;26.23;;
46653;SDS011;38960;51.074;17.004;2023-08-20T04:40:30;28.63;;;26.25;;
46653;SDS011;38960;51.074;17.004;2023-08-20T04:42:56;28.73;;;26.10;;
46653;SDS011;38960;51.074;17.004;2023-08-20T04:45:22;28.17;;;25.77;;
46653;SDS011;38960;51.074;17.004;2023-08-20T04:47:47;27.27;;;25.25;;
46653;SDS011;38960;51.074;17.004;2023-08-20T04:50:15;28.90;;;26.13;;
46653;SDS011;38960;51.074;17.004;2023-08-20T04:52:41;28.33;;;26.20;;
46653;SDS011;38960;51.074;17.004;2023-08-20T04:55:07;29.90;;;27.27;;
46653;SDS011;38960;51.074;17.004;2023-08-20T04:57:33;29.33;;;26.83;;
46653;SDS011;38960;51.074;17.004;2023-08-20T05:00:01;28.25;;;25.67;;
46653;SDS011;38960;51.074;17.004;2023-08-20T05:05:11;29.38;;;26.70;;
46653;SDS011;38960;51.074;17.004;2023-08-20T05:07:38;27.77;;;25.33;;
46653;SDS011;38960;51.074;17.004;2023-08-20T05:10:04;28.17;;;26.08;;
46653;SDS011;38960;51.074;17.004;2023-08-20T05:12:30;28.58;;;26.15;;
46653;SDS011;38960;51.074;17.004;2023-08-20T05:14:55;28.80;;;26.58;;
46653;SDS011;38960;51.074;17.004;2023-08-20T05:17:21;27.85;;;25.65;;
46653;SDS011;38960;51.074;17.004;2023-08-20T05:19:46;27.58;;;25.35;;
46653;SDS011;38960;51.074;17.004;2023-08-20T05:22:12;25.35;;;23.52;;
46653;SDS011;38960;51.074;17.004;2023-08-20T05:24:38;27.20;;;25.00;;
46653;SDS011;38960;51.074;17.004;2023-08-20T05:27:07;28.67;;;26.30;;
46653;SDS011;38960;51.074;17.004;2023-08-20T05:29:34;26.10;;;24.00;;
46653;SDS011;38960;51.074;17.004;2023-08-20T05:32:00;26.33;;;24.27;;
46653;SDS011;38960;51.074;17.004;2023-08-20T05:34:26;25.20;;;23.40;;
46653;SDS011;38960;51.074;17.004;2023-08-20T05:36:51;25.90;;;23.70;;
46653;SDS011;38960;51.074;17.004;2023-08-20T05:39:18;27.08;;;25.08;;
46653;SDS011;38960;51.074;17.004;2023-08-20T05:41:43;26.90;;;24.60;;
46653;SDS011;38960;51.074;17.004;2023-08-20T05:44:09;27.23;;;24.67;;
46653;SDS011;38960;51.074;17.004;2023-08-20T05:46:35;23.60;;;22.00;;
46653;SDS011;38960;51.074;17.004;2023-08-20T05:49:01;26.98;;;24.30;;
46653;SDS011;38960;51.074;17.004;2023-08-20T05:51:32;25.50;;;23.58;;
46653;SDS011;38960;51.074;17.004;2023-08-20T05:53:57;24.65;;;22.83;;
46653;SDS011;38960;51.074;17.004;2023-08-20T05:56:23;23.35;;;21.55;;
46653;SDS011;38960;51.074;17.004;2023-08-20T05:58:49;24.50;;;22.35;;
46653;SDS011;38960;51.074;17.004;2023-08-20T06:01:15;26.08;;;24.10;;
46653;SDS011;38960;51.074;17.004;2023-08-20T06:03:40;24.60;;;22.63;;
46653;SDS011;38960;51.074;17.004;2023-08-20T06:06:06;25.02;;;23.10;;
46653;SDS011;38960;51.074;17.004;2023-08-20T06:08:32;24.50;;;22.67;;
46653;SDS011;38960;51.074;17.004;2023-08-20T06:10:57;22.60;;;20.98;;
46653;SDS011;38960;51.074;17.004;2023-08-20T06:13:24;24.60;;;22.92;;
46653;SDS011;38960;51.074;17.004;2023-08-20T06:15:50;24.13;;;22.35;;
46653;SDS011;38960;51.074;17.004;2023-08-20T06:18:15;25.17;;;23.42;;
46653;SDS011;38960;51.074;17.004;2023-08-20T06:20:41;23.45;;;21.90;;
46653;SDS011;38960;51.074;17.004;2023-08-20T06:23:06;24.17;;;22.55;;
46653;SDS011;38960;51.074;17.004;2023-08-20T06:25:32;24.30;;;22.58;;
46653;SDS011;38960;51.074;17.004;2023-08-20T06:27:57;24.17;;;22.38;;
46653;SDS011;38960;51.074;17.004;2023-08-20T06:30:23;23.48;;;21.83;;
46653;SDS011;38960;51.074;17.004;2023-08-20T06:32:48;23.75;;;22.02;;
46653;SDS011;38960;51.074;17.004;2023-08-20T06:35:14;23.80;;;22.08;;
46653;SDS011;38960;51.074;17.004;2023-08-20T06:37:39;23.25;;;21.65;;
46653;SDS011;38960;51.074;17.004;2023-08-20T06:40:06;23.50;;;21.77;;
46653;SDS011;38960;51.074;17.004;2023-08-20T06:42:32;22.20;;;20.80;;
46653;SDS011;38960;51.074;17.004;2023-08-20T06:44:57;23.80;;;21.90;;
46653;SDS011;38960;51.074;17.004;2023-08-20T06:47:23;22.35;;;20.75;;
46653;SDS011;38960;51.074;17.004;2023-08-20T06:49:49;22.25;;;20.75;;
46653;SDS011;38960;51.074;17.004;2023-08-20T06:52:15;22.17;;;20.77;;
46653;SDS011;38960;51.074;17.004;2023-08-20T06:54:40;22.83;;;21.25;;
46653;SDS011;38960;51.074;17.004;2023-08-20T06:57:06;22.50;;;20.80;;
46653;SDS011;38960;51.074;17.004;2023-08-20T06:59:31;22.67;;;21.17;;
46653;SDS011;38960;51.074;17.004;2023-08-20T07:01:57;22.95;;;21.13;;
46653;SDS011;38960;51.074;17.004;2023-08-20T07:04:22;21.50;;;20.00;;
46653;SDS011;38960;51.074;17.004;2023-08-20T07:06:48;21.60;;;20.10;;
46653;SDS011;38960;51.074;17.004;2023-08-20T07:09:13;22.17;;;20.73;;
46653;SDS011;38960;51.074;17.004;2023-08-20T07:11:39;21.10;;;19.67;;
46653;SDS011;38960;51.074;17.004;2023-08-20T07:14:04;22.23;;;20.30;;
46653;SDS011;38960;51.074;17.004;2023-08-20T07:16:31;20.65;;;19.33;;
46653;SDS011;38960;51.074;17.004;2023-08-20T07:18:56;21.25;;;19.75;;
46653;SDS011;38960;51.074;17.004;2023-08-20T07:21:22;21.02;;;19.52;;
46653;SDS011;38960;51.074;17.004;2023-08-20T07:23:48;22.67;;;21.17;;
46653;SDS011;38960;51.074;17.004;2023-08-20T07:26:13;21.38;;;20.08;;
46653;SDS011;38960;51.074;17.004;2023-08-20T07:28:39;23.70;;;21.90;;
46653;SDS011;38960;51.074;17.004;2023-08-20T07:31:29;21.60;;;20.20;;
46653;SDS011;38960;51.074;17.004;2023-08-20T07:33:55;21.85;;;20.27;;
46653;SDS011;38960;51.074;17.004;2023-08-20T07:36:22;22.05;;;20.33;;
46653;SDS011;38960;51.074;17.004;2023-08-20T07:38:48;21.08;;;19.48;;
46653;SDS011;38960;51.074;17.004;2023-08-20T07:41:14;21.88;;;20.35;;
46653;SDS011;38960;51.074;17.004;2023-08-20T07:43:40;21.23;;;19.83;;
46653;SDS011;38960;51.074;17.004;2023-08-20T07:46:06;21.25;;;19.80;;
46653;SDS011;38960;51.074;17.004;2023-08-20T07:48:33;21.88;;;20.38;;
46653;SDS011;38960;51.074;17.004;2023-08-20T07:50:59;21.08;;;19.70;;
46653;SDS011;38960;51.074;17.004;2023-08-20T07:53:24;20.73;;;19.33;;
46653;SDS011;38960;51.074;17.004;2023-08-20T07:55:50;21.38;;;19.67;;
46653;SDS011;38960;51.074;17.004;2023-08-20T07:58:15;21.13;;;19.65;;
46653;SDS011;38960;51.074;17.004;2023-08-20T08:00:41;21.30;;;19.67;;
46653;SDS011;38960;51.074;17.004;2023-08-20T08:03:07;22.42;;;20.83;;
46653;SDS011;38960;51.074;17.004;2023-08-20T08:05:34;21.75;;;20.27;;
46653;SDS011;38960;51.074;17.004;2023-08-20T08:07:59;20.67;;;19.38;;
46653;SDS011;38960;51.074;17.004;2023-08-20T08:10:25;20.98;;;19.48;;
46653;SDS011;38960;51.074;17.004;2023-08-20T08:12:50;22.65;;;20.52;;
46653;SDS011;38960;51.074;17.004;2023-08-20T08:15:16;21.00;;;19.40;;
46653;SDS011;38960;51.074;17.004;2023-08-20T08:17:42;21.83;;;20.42;;
46653;SDS011;38960;51.074;17.004;2023-08-20T08:20:07;21.00;;;19.70;;
46653;SDS011;38960;51.074;17.004;2023-08-20T08:22:33;20.35;;;19.05;;
46653;SDS011;38960;51.074;17.004;2023-08-20T08:24:58;20.23;;;18.92;;
46653;SDS011;38960;51.074;17.004;2023-08-20T08:27:24;20.80;;;19.27;;
46653;SDS011;38960;51.074;17.004;2023-08-20T08:29:50;19.95;;;18.60;;
46653;SDS011;38960;51.074;17.004;2023-08-20T08:32:16;19.80;;;18.60;;
46653;SDS011;38960;51.074;17.004;2023-08-20T08:34:41;21.17;;;19.50;;
46653;SDS011;38960;51.074;17.004;2023-08-20T08:37:07;20.13;;;18.90;;
46653;SDS011;38960;51.074;17.004;2023-08-20T08:39:32;19.20;;;17.98;;
46653;SDS011;38960;51.074;17.004;2023-08-20T08:42:01;19.85;;;18.65;;
46653;SDS011;38960;51.074;17.004;2023-08-20T08:44:30;19.73;;;18.52;;
46653;SDS011;38960;51.074;17.004;2023-08-20T08:46:57;21.13;;;19.55;;
46653;SDS011;38960;51.074;17.004;2023-08-20T08:49:23;20.10;;;18.83;;
46653;SDS011;38960;51.074;17.004;2023-08-20T08:51:48;19.23;;;17.92;;
46653;SDS011;38960;51.074;17.004;2023-08-20T08:54:16;20.13;;;18.85;;
46653;SDS011;38960;51.074;17.004;2023-08-20T08:56:42;19.80;;;18.38;;
46653;SDS011;38960;51.074;17.004;2023-08-20T08:59:07;12.45;;;11.45;;
46653;SDS011;38960;51.074;17.004;2023-08-20T09:01:37;20.30;;;18.80;;
46653;SDS011;38960;51.074;17.004;2023-08-20T09:04:03;20.30;;;18.92;;
46653;SDS011;38960;51.074;17.004;2023-08-20T09:06:29;20.55;;;19.05;;
46653;SDS011;38960;51.074;17.004;2023-08-20T09:09:10;21.13;;;19.73;;
46653;SDS011;38960;51.074;17.004;2023-08-20T09:11:35;20.30;;;18.95;;
46653;SDS011;38960;51.074;17.004;2023-08-20T09:14:01;21.35;;;19.83;;
46653;SDS011;38960;51.074;17.004;2023-08-20T09:16:26;20.35;;;18.88;;
46653;SDS011;38960;51.074;17.004;2023-08-20T09:18:57;20.90;;;19.50;;
46653;SDS011;38960;51.074;17.004;2023-08-20T09:21:26;20.85;;;19.50;;
46653;SDS011;38960;51.074;17.004;2023-08-20T09:23:53;21.02;;;19.45;;
46653;SDS011;38960;51.074;17.004;2023-08-20T09:26:19;20.90;;;19.60;;
46653;SDS011;38960;51.074;17.004;2023-08-20T09:28:45;21.70;;;19.98;;
46653;SDS011;38960;51.074;17.004;2023-08-20T09:31:12;21.70;;;20.13;;
46653;SDS011;38960;51.074;17.004;2023-08-20T09:33:53;21.45;;;20.08;;
46653;SDS011;38960;51.074;17.004;2023-08-20T09:36:29;21.38;;;19.75;;
46653;SDS011;38960;51.074;17.004;2023-08-20T09:38:58;22.08;;;20.40;;
46653;SDS011;38960;51.074;17.004;2023-08-20T09:41:24;21.25;;;19.75;;
46653;SDS011;38960;51.074;17.004;2023-08-20T09:43:56;21.73;;;20.13;;
46653;SDS011;38960;51.074;17.004;2023-08-20T09:46:23;22.48;;;20.90;;
46653;SDS011;38960;51.074;17.004;2023-08-20T09:48:55;21.67;;;20.17;;
46653;SDS011;38960;51.074;17.004;2023-08-20T09:51:24;22.40;;;20.73;;
46653;SDS011;38960;51.074;17.004;2023-08-20T09:56:58;21.60;;;19.98;;
46653;SDS011;38960;51.074;17.004;2023-08-20T09:59:26;22.00;;;20.20;;
46653;SDS011;38960;51.074;17.004;2023-08-20T10:01:52;22.27;;;20.77;;
46653;SDS011;38960;51.074;17.004;2023-08-20T10:04:18;22.08;;;20.48;;
46653;SDS011;38960;51.074;17.004;2023-08-20T10:06:45;22.52;;;20.85;;
46653;SDS011;38960;51.074;17.004;2023-08-20T10:09:11;21.50;;;20.00;;
46653;SDS011;38960;51.074;17.004;2023-08-20T10:11:38;21.20;;;19.80;;
46653;SDS011;38960;51.074;17.004;2023-08-20T10:14:05;22.00;;;20.45;;
46653;SDS011;38960;51.074;17.004;2023-08-20T10:16:32;22.00;;;20.48;;
46653;SDS011;38960;51.074;17.004;2023-08-20T10:19:01;21.15;;;19.65;;
46653;SDS011;38960;51.074;17.004;2023-08-20T10:21:31;21.25;;;19.70;;
46653;SDS011;38960;51.074;17.004;2023-08-20T10:23:57;20.58;;;19.17;;
46653;SDS011;38960;51.074;17.004;2023-08-20T10:26:22;20.85;;;19.35;;
46653;SDS011;38960;51.074;17.004;2023-08-20T10:28:49;20.30;;;19.00;;
46653;SDS011;38960;51.074;17.004;2023-08-20T10:31:16;20.95;;;19.45;;
46653;SDS011;38960;51.074;17.004;2023-08-20T10:33:49;22.00;;;20.42;;
46653;SDS011;38960;51.074;17.004;2023-08-20T10:36:17;20.77;;;19.42;;
46653;SDS011;38960;51.074;17.004;2023-08-20T10:38:47;21.02;;;19.35;;
46653;SDS011;38960;51.074;17.004;2023-08-20T10:41:15;20.80;;;19.40;;
46653;SDS011;38960;51.074;17.004;2023-08-20T10:43:48;20.10;;;18.70;;
46653;SDS011;38960;51.074;17.004;2023-08-20T10:46:18;20.30;;;18.67;;
46653;SDS011;38960;51.074;17.004;2023-08-20T10:48:52;20.05;;;18.55;;
46653;SDS011;38960;51.074;17.004;2023-08-20T10:51:19;20.70;;;19.15;;
46653;SDS011;38960;51.074;17.004;2023-08-20T10:59:13;20.15;;;18.75;;
46653;SDS011;38960;51.074;17.004;2023-08-20T11:01:48;21.17;;;19.70;;
46653;SDS011;38960;51.074;17.004;2023-08-20T11:04:15;20.27;;;18.98;;
46653;SDS011;38960;51.074;17.004;2023-08-20T11:06:41;21.58;;;20.10;;
46653;SDS011;38960;51.074;17.004;2023-08-20T11:09:06;20.58;;;19.13;;
46653;SDS011;38960;51.074;17.004;2023-08-20T11:11:32;20.90;;;19.25;;
46653;SDS011;38960;51.074;17.004;2023-08-20T11:14:04;21.02;;;19.52;;
46653;SDS011;38960;51.074;17.004;2023-08-20T11:16:31;22.75;;;20.67;;
46653;SDS011;38960;51.074;17.004;2023-08-20T11:18:57;20.55;;;19.17;;
46653;SDS011;38960;51.074;17.004;2023-08-20T11:21:23;20.30;;;19.00;;
46653;SDS011;38960;51.074;17.004;2023-08-20T11:23:48;21.45;;;19.83;;
46653;SDS011;38960;51.074;17.004;2023-08-20T11:26:14;21.33;;;19.88;;
46653;SDS011;38960;51.074;17.004;2023-08-20T11:28:44;20.67;;;19.27;;
46653;SDS011;38960;51.074;17.004;2023-08-20T11:31:11;21.90;;;20.48;;
46653;SDS011;38960;51.074;17.004;2023-08-20T11:33:36;21.27;;;19.88;;
46653;SDS011;38960;51.074;17.004;2023-08-20T11:36:02;20.85;;;19.48;;
46653;SDS011;38960;51.074;17.004;2023-08-20T11:38:30;20.48;;;19.08;;
46653;SDS011;38960;51.074;17.004;2023-08-20T11:40:57;21.92;;;20.17;;
46653;SDS011;38960;51.074;17.004;2023-08-20T11:43:24;20.05;;;18.75;;
46653;SDS011;38960;51.074;17.004;2023-08-20T11:45:52;20.30;;;19.00;;
46653;SDS011;38960;51.074;17.004;2023-08-20T11:48:19;20.55;;;19.25;;
46653;SDS011;38960;51.074;17.004;2023-08-20T11:50:46;20.23;;;18.92;;
46653;SDS011;38960;51.074;17.004;2023-08-20T11:53:12;20.40;;;19.10;;
46653;SDS011;38960;51.074;17.004;2023-08-20T11:55:41;21.48;;;19.95;;
46653;SDS011;38960;51.074;17.004;2023-08-20T11:58:13;21.00;;;19.50;;
46653;SDS011;38960;51.074;17.004;2023-08-20T12:00:39;21.33;;;19.92;;
46653;SDS011;38960;51.074;17.004;2023-08-20T12:03:05;20.25;;;19.00;;
46653;SDS011;38960;51.074;17.004;2023-08-20T12:05:31;20.98;;;19.38;;
46653;SDS011;38960;51.074;17.004;2023-08-20T12:07:57;21.08;;;19.58;;
46653;SDS011;38960;51.074;17.004;2023-08-20T12:10:24;21.23;;;19.70;;
46653;SDS011;38960;51.074;17.004;2023-08-20T12:12:50;20.85;;;19.45;;
46653;SDS011;38960;51.074;17.004;2023-08-20T12:15:16;21.17;;;19.83;;
46653;SDS011;38960;51.074;17.004;2023-08-20T12:17:43;21.20;;;19.70;;
46653;SDS011;38960;51.074;17.004;2023-08-20T12:20:19;20.58;;;19.20;;
46653;SDS011;38960;51.074;17.004;2023-08-20T12:22:45;21.50;;;20.00;;
46653;SDS011;38960;51.074;17.004;2023-08-20T12:25:10;21.85;;;20.35;;
46653;SDS011;38960;51.074;17.004;2023-08-20T12:27:37;21.30;;;19.80;;
46653;SDS011;38960;51.074;17.004;2023-08-20T12:30:02;21.33;;;19.83;;
46653;SDS011;38960;51.074;17.004;2023-08-20T12:32:28;21.85;;;20.25;;
46653;SDS011;38960;51.074;17.004;2023-08-20T12:34:54;22.05;;;20.25;;
46653;SDS011;38960;51.074;17.004;2023-08-20T12:37:19;22.27;;;20.67;;
46653;SDS011;38960;51.074;17.004;2023-08-20T12:39:45;21.80;;;20.20;;
46653;SDS011;38960;51.074;17.004;2023-08-20T12:42:10;22.08;;;20.38;;
46653;SDS011;38960;51.074;17.004;2023-08-20T12:44:36;22.02;;;20.40;;
46653;SDS011;38960;51.074;17.004;2023-08-20T12:47:01;22.55;;;20.58;;
46653;SDS011;38960;51.074;17.004;2023-08-20T12:49:27;21.33;;;19.92;;
46653;SDS011;38960;51.074;17.004;2023-08-20T12:51:52;21.65;;;20.23;;
46653;SDS011;38960;51.074;17.004;2023-08-20T12:54:18;22.23;;;20.35;;
46653;SDS011;38960;51.074;17.004;2023-08-20T12:56:43;22.02;;;20.52;;
46653;SDS011;38960;51.074;17.004;2023-08-20T12:59:09;22.63;;;21.02;;
46653;SDS011;38960;51.074;17.004;2023-08-20T13:01:34;21.90;;;20.40;;
46653;SDS011;38960;51.074;17.004;2023-08-20T13:04:00;22.50;;;21.02;;
46653;SDS011;38960;51.074;17.004;2023-08-20T13:06:26;22.33;;;20.83;;
46653;SDS011;38960;51.074;17.004;2023-08-20T13:08:52;22.08;;;20.52;;
46653;SDS011;38960;51.074;17.004;2023-08-20T13:11:17;22.38;;;20.67;;
46653;SDS011;38960;51.074;17.004;2023-08-20T13:13:45;21.98;;;20.27;;
46653;SDS011;38960;51.074;17.004;2023-08-20T13:16:11;20.45;;;19.15;;
46653;SDS011;38960;51.074;17.004;2023-08-20T13:18:36;21.95;;;20.55;;
46653;SDS011;38960;51.074;17.004;2023-08-20T13:21:02;22.92;;;21.17;;
46653;SDS011;38960;51.074;17.004;2023-08-20T13:23:29;23.02;;;21.10;;
46653;SDS011;38960;51.074;17.004;2023-08-20T13:25:55;22.35;;;20.55;;
46653;SDS011;38960;51.074;17.004;2023-08-20T13:28:20;22.80;;;21.15;;
46653;SDS011;38960;51.074;17.004;2023-08-20T13:30:46;21.75;;;20.35;;
46653;SDS011;38960;51.074;17.004;2023-08-20T13:33:12;21.10;;;19.70;;
46653;SDS011;38960;51.074;17.004;2023-08-20T13:35:39;22.15;;;20.55;;
46653;SDS011;38960;51.074;17.004;2023-08-20T13:38:06;22.08;;;20.40;;
46653;SDS011;38960;51.074;17.004;2023-08-20T13:40:31;21.45;;;19.95;;
46653;SDS011;38960;51.074;17.004;2023-08-20T13:42:57;21.50;;;20.05;;
46653;SDS011;38960;51.074;17.004;2023-08-20T13:45:22;21.85;;;20.45;;
46653;SDS011;38960;51.074;17.004;2023-08-20T13:47:48;20.75;;;19.45;;
46653;SDS011;38960;51.074;17.004;2023-08-20T13:50:13;21.33;;;19.92;;
46653;SDS011;38960;51.074;17.004;2023-08-20T13:52:39;22.13;;;20.50;;
46653;SDS011;38960;51.074;17.004;2023-08-20T13:55:06;22.85;;;21.23;;
46653;SDS011;38960;51.074;17.004;2023-08-20T13:57:33;23.55;;;21.80;;
46653;SDS011;38960;51.074;17.004;2023-08-20T13:59:59;22.20;;;20.80;;
46653;SDS011;38960;51.074;17.004;2023-08-20T14:02:25;22.80;;;21.10;;
46653;SDS011;38960;51.074;17.004;2023-08-20T14:04:51;23.08;;;21.27;;
46653;SDS011;38960;51.074;17.004;2023-08-20T14:07:17;21.88;;;20.35;;
46653;SDS011;38960;51.074;17.004;2023-08-20T14:09:43;21.77;;;20.35;;
46653;SDS011;38960;51.074;17.004;2023-08-20T14:12:10;21.77;;;20.27;;
46653;SDS011;38960;51.074;17.004;2023-08-20T14:14:38;22.33;;;20.73;;
46653;SDS011;38960;51.074;17.004;2023-08-20T14:17:04;21.70;;;20.30;;
46653;SDS011;38960;51.074;17.004;2023-08-20T14:19:30;22.27;;;20.70;;
46653;SDS011;38960;51.074;17.004;2023-08-20T14:21:56;20.85;;;19.45;;
46653;SDS011;38960;51.074;17.004;2023-08-20T14:24:23;20.80;;;19.40;;